createdAt,value
2022-07-27T00:00:42.000Z,144.97
2022-07-27T00:03:09.000Z,140.68
2022-07-27T00:05:35.000Z,139.92
2022-07-27T00:08:00.000Z,131.47
2022-07-27T00:10:27.000Z,135.23
2022-07-27T00:12:54.000Z,135.15
2022-07-27T00:15:20.000Z,135.33
2022-07-27T00:17:46.000Z,127.42
2022-07-27T00:20:12.000Z,125.03
2022-07-27T00:22:39.000Z,129.95
2022-07-27T00:25:06.000Z,136.97
2022-07-27T00:27:31.000Z,124.47
2022-07-27T00:29:58.000Z,136.37
2022-07-27T00:32:24.000Z,135.57
2022-07-27T00:34:50.000Z,125.92
2022-07-27T00:37:17.000Z,125.87
2022-07-27T00:39:44.000Z,126.5
2022-07-27T00:42:10.000Z,125.3
2022-07-27T00:47:03.000Z,124.03
2022-07-27T00:49:30.000Z,117.03
2022-07-27T00:51:57.000Z,126.9
2022-07-27T00:54:22.000Z,112.45
2022-07-27T00:56:50.000Z,111.22
2022-07-27T00:59:15.000Z,113.12
2022-07-27T01:01:41.000Z,111.35
2022-07-27T01:04:10.000Z,105.7
2022-07-27T01:06:34.000Z,101.97
2022-07-27T01:09:00.000Z,103.38
2022-07-27T01:11:27.000Z,93.58
2022-07-27T01:13:53.000Z,96.02
2022-07-27T01:16:20.000Z,90.92
2022-07-27T01:18:46.000Z,94.77
2022-07-27T01:21:12.000Z,89.83
2022-07-27T01:23:38.000Z,91.35
2022-07-27T01:26:05.000Z,96.17
2022-07-27T01:28:30.000Z,93.5
2022-07-27T01:30:56.000Z,98.45
2022-07-27T01:33:23.000Z,94.55
2022-07-27T01:35:50.000Z,98.52
2022-07-27T01:38:16.000Z,98.5
2022-07-27T01:40:42.000Z,92.55
2022-07-27T01:43:09.000Z,94.5
2022-07-27T01:45:36.000Z,97.05
2022-07-27T01:48:02.000Z,92.92
2022-07-27T01:50:29.000Z,105.1
2022-07-27T01:52:55.000Z,104.3
2022-07-27T01:55:21.000Z,97.65
2022-07-27T01:57:47.000Z,97.65
2022-07-27T01:57:53.000Z,94.8
2022-07-27T02:00:17.000Z,97.02
2022-07-27T02:02:41.000Z,91.47
2022-07-27T02:05:07.000Z,98.7
2022-07-27T02:07:33.000Z,102.85
2022-07-27T02:09:59.000Z,101.2
2022-07-27T02:12:26.000Z,97.08
2022-07-27T02:14:53.000Z,96.97
2022-07-27T02:17:19.000Z,96.97
2022-07-27T02:19:45.000Z,96.97
2022-07-27T02:19:51.000Z,91.42
2022-07-27T02:19:56.000Z,97.57
2022-07-27T02:22:12.000Z,97.72
2022-07-27T02:24:38.000Z,92.57
2022-07-27T02:27:04.000Z,96.9
2022-07-27T02:29:31.000Z,94.05
2022-07-27T02:31:57.000Z,94.28
2022-07-27T02:34:23.000Z,89.97
2022-07-27T02:36:50.000Z,87.08
2022-07-27T02:39:16.000Z,86.6
2022-07-27T02:41:43.000Z,82.97
2022-07-27T02:44:09.000Z,84.97
2022-07-27T02:46:35.000Z,85.47
2022-07-27T02:49:02.000Z,84.83
2022-07-27T02:53:56.000Z,82.2
2022-07-27T02:56:21.000Z,81.9
2022-07-27T02:58:47.000Z,81.9
2022-07-27T02:58:53.000Z,79.4
2022-07-27T03:01:14.000Z,83.45
2022-07-27T03:03:40.000Z,85.03
2022-07-27T03:06:06.000Z,84.4
2022-07-27T03:08:33.000Z,87.15
2022-07-27T03:10:59.000Z,90.05
2022-07-27T03:13:26.000Z,84.55
2022-07-27T03:15:52.000Z,91.4
2022-07-27T03:18:19.000Z,89.17
2022-07-27T03:20:45.000Z,89.6
2022-07-27T03:23:11.000Z,84.47
2022-07-27T03:25:38.000Z,84.53
2022-07-27T03:28:04.000Z,85.9
2022-07-27T03:32:56.000Z,84.17
2022-07-27T03:35:23.000Z,84.37
2022-07-27T03:37:49.000Z,86.15
2022-07-27T03:40:16.000Z,82.55
2022-07-27T03:42:42.000Z,85.05
2022-07-27T03:45:08.000Z,83.12
2022-07-27T03:47:35.000Z,79.5
2022-07-27T03:50:01.000Z,81.4
2022-07-27T03:52:27.000Z,86.15
2022-07-27T03:57:19.000Z,79.5
2022-07-27T03:59:46.000Z,79.77
2022-07-27T04:02:12.000Z,78.52
2022-07-27T04:04:38.000Z,73.83
2022-07-27T04:07:05.000Z,73.13
2022-07-27T04:09:32.000Z,70.5
2022-07-27T04:11:57.000Z,73.62
2022-07-27T04:14:24.000Z,69.37
2022-07-27T04:16:51.000Z,68.78
2022-07-27T04:19:16.000Z,74.3
2022-07-27T04:21:43.000Z,70.85
2022-07-27T04:24:09.000Z,72.08
2022-07-27T04:26:35.000Z,73.83
2022-07-27T04:29:02.000Z,71.02
2022-07-27T04:31:28.000Z,71.25
2022-07-27T04:33:55.000Z,66.17
2022-07-27T04:36:21.000Z,72.15
2022-07-27T04:38:48.000Z,64.7
2022-07-27T04:41:15.000Z,67.78
2022-07-27T04:43:41.000Z,65.57
2022-07-27T04:46:08.000Z,69.07
2022-07-27T04:48:33.000Z,69.07
2022-07-27T04:48:38.000Z,68.97
2022-07-27T04:51:00.000Z,68.97
2022-07-27T04:51:05.000Z,67.58
2022-07-27T04:53:27.000Z,65.42
2022-07-27T04:55:53.000Z,66.13
2022-07-27T04:58:19.000Z,64.4
2022-07-27T05:00:48.000Z,65
2022-07-27T05:03:12.000Z,69.55
2022-07-27T05:05:38.000Z,68.13
2022-07-27T05:08:05.000Z,68.13
2022-07-27T05:08:12.000Z,68.97
2022-07-27T05:10:31.000Z,67.1
2022-07-27T05:13:01.000Z,65.28
2022-07-27T05:15:24.000Z,65.28
2022-07-27T05:17:51.000Z,65.28
2022-07-27T05:17:56.000Z,69.12
2022-07-27T05:18:03.000Z,68.67
2022-07-27T05:20:18.000Z,66.5
2022-07-27T05:22:44.000Z,67.87
2022-07-27T05:27:36.000Z,67.9
2022-07-27T05:30:03.000Z,67.9
2022-07-27T05:30:09.000Z,74.47
2022-07-27T05:32:29.000Z,80.85
2022-07-27T05:34:56.000Z,75.47
2022-07-27T05:37:22.000Z,85.85
2022-07-27T05:39:49.000Z,93.22
2022-07-27T05:42:15.000Z,91.7
2022-07-27T05:44:41.000Z,97.45
2022-07-27T05:47:07.000Z,100.42
2022-07-27T05:49:34.000Z,100.47
2022-07-27T05:52:00.000Z,98.72
2022-07-27T05:54:27.000Z,113.45
2022-07-27T05:56:53.000Z,103.78
2022-07-27T05:59:19.000Z,114.8
2022-07-27T06:01:46.000Z,119.27
2022-07-27T06:04:12.000Z,125.5
2022-07-27T06:06:38.000Z,109.97
2022-07-27T06:09:04.000Z,110.17
2022-07-27T06:11:31.000Z,118.93
2022-07-27T06:13:58.000Z,113.53
2022-07-27T06:16:24.000Z,116.8
2022-07-27T06:18:50.000Z,110.1
2022-07-27T06:21:16.000Z,115.05
2022-07-27T06:23:42.000Z,114.57
2022-07-27T06:26:10.000Z,111.57
2022-07-27T06:28:35.000Z,111.23
2022-07-27T06:31:02.000Z,106.65
2022-07-27T06:33:28.000Z,105.23
2022-07-27T06:35:54.000Z,101.05
2022-07-27T06:38:20.000Z,100.75
2022-07-27T06:40:47.000Z,100.2
2022-07-27T06:43:14.000Z,95.7
2022-07-27T06:45:40.000Z,86
2022-07-27T06:48:07.000Z,86.93
2022-07-27T06:50:33.000Z,96.92
2022-07-27T06:53:00.000Z,86.8
2022-07-27T06:55:27.000Z,89.75
2022-07-27T06:57:54.000Z,89.42
2022-07-27T07:00:23.000Z,88.85
2022-07-27T07:02:46.000Z,87.88
2022-07-27T07:05:13.000Z,83.22
2022-07-27T07:07:40.000Z,93.9
2022-07-27T07:10:06.000Z,80.72
2022-07-27T07:12:33.000Z,81.6
2022-07-27T07:14:59.000Z,79.37
2022-07-27T07:17:26.000Z,82.27
2022-07-27T07:19:53.000Z,83.2
2022-07-27T07:22:22.000Z,81.82
2022-07-27T07:24:45.000Z,69.35
2022-07-27T07:27:12.000Z,65.33
2022-07-27T07:29:39.000Z,62.5
2022-07-27T07:32:06.000Z,59.95
2022-07-27T07:34:31.000Z,61.05
2022-07-27T07:36:58.000Z,55.55
2022-07-27T07:39:25.000Z,55.92
2022-07-27T07:41:51.000Z,55.92
2022-07-27T07:41:57.000Z,49.58
2022-07-27T07:44:18.000Z,48.28
2022-07-27T07:46:43.000Z,46.55
2022-07-27T07:49:10.000Z,60.4
2022-07-27T07:51:36.000Z,50.45
2022-07-27T07:54:03.000Z,59.4
2022-07-27T07:56:30.000Z,48.28
2022-07-27T07:58:56.000Z,55.23
2022-07-27T08:01:23.000Z,43.23
2022-07-27T08:03:49.000Z,42.27
2022-07-27T08:06:16.000Z,38.38
2022-07-27T08:08:42.000Z,38.77
2022-07-27T08:11:09.000Z,36.95
2022-07-27T08:13:36.000Z,35.03
2022-07-27T08:16:02.000Z,35.45
2022-07-27T08:18:30.000Z,34.75
2022-07-27T08:20:55.000Z,34.75
2022-07-27T08:21:01.000Z,34.5
2022-07-27T08:23:22.000Z,36.6
2022-07-27T08:25:47.000Z,38.7
2022-07-27T08:28:14.000Z,34.6
2022-07-27T08:30:40.000Z,33.27
2022-07-27T08:33:07.000Z,35.3
2022-07-27T08:38:00.000Z,33.33
2022-07-27T08:40:26.000Z,33.95
2022-07-27T08:42:53.000Z,33.95
2022-07-27T08:42:58.000Z,36.42
2022-07-27T08:45:19.000Z,34.8
2022-07-27T08:47:45.000Z,33.93
2022-07-27T08:50:11.000Z,35.83
2022-07-27T08:52:38.000Z,35
2022-07-27T08:55:05.000Z,33.9
2022-07-27T08:57:32.000Z,35.92
2022-07-27T08:59:57.000Z,35
2022-07-27T09:02:23.000Z,37.37
2022-07-27T09:04:50.000Z,34.63
2022-07-27T09:07:16.000Z,35.55
2022-07-27T09:09:43.000Z,35.92
2022-07-27T09:12:10.000Z,37.48
2022-07-27T09:14:36.000Z,37.8
2022-07-27T09:17:02.000Z,35.43
2022-07-27T09:19:30.000Z,35.43
2022-07-27T09:21:56.000Z,35.43
2022-07-27T09:22:04.000Z,33.88
2022-07-27T09:22:11.000Z,34.23
2022-07-27T09:24:22.000Z,34.38
2022-07-27T09:26:49.000Z,34.38
2022-07-27T09:26:55.000Z,36.88
2022-07-27T09:29:16.000Z,34.18
2022-07-27T09:31:42.000Z,34.5
2022-07-27T09:34:08.000Z,35.45
2022-07-27T09:36:35.000Z,36.75
2022-07-27T09:41:28.000Z,35.08
2022-07-27T09:46:22.000Z,34.6
2022-07-27T09:46:30.000Z,33.6
2022-07-27T09:48:48.000Z,35.68
2022-07-27T09:51:14.000Z,36.08
2022-07-27T09:53:40.000Z,36.08
2022-07-27T09:53:48.000Z,34.18
2022-07-27T09:56:07.000Z,37.25
2022-07-27T09:58:33.000Z,38.63
2022-07-27T10:01:00.000Z,35.27
2022-07-27T10:03:26.000Z,37.03
2022-07-27T10:05:53.000Z,38.83
2022-07-27T10:08:19.000Z,45.05
2022-07-27T10:10:46.000Z,47.8
2022-07-27T10:13:13.000Z,39.03
2022-07-27T10:15:39.000Z,44.93
2022-07-27T10:18:06.000Z,44.58
2022-07-27T10:20:32.000Z,44.5
2022-07-27T10:22:59.000Z,41.42
2022-07-27T10:25:25.000Z,45.05
2022-07-27T10:27:52.000Z,45.05
2022-07-27T10:27:57.000Z,44.6
2022-07-27T10:30:19.000Z,42.05
2022-07-27T10:32:45.000Z,42.05
2022-07-27T10:32:52.000Z,47.05
2022-07-27T10:35:11.000Z,46.8
2022-07-27T10:37:39.000Z,45.83
2022-07-27T10:40:05.000Z,44.13
2022-07-27T10:42:31.000Z,48.83
2022-07-27T10:44:58.000Z,49.27
2022-07-27T10:47:24.000Z,51.95
2022-07-27T10:49:50.000Z,60.2
2022-07-27T10:52:17.000Z,49.77
2022-07-27T10:54:44.000Z,52.6
2022-07-27T10:57:11.000Z,52.6
2022-07-27T10:57:17.000Z,49.8
2022-07-27T10:59:36.000Z,49.13
2022-07-27T11:02:03.000Z,49.13
2022-07-27T11:02:09.000Z,44.47
2022-07-27T11:04:30.000Z,48.9
2022-07-27T11:06:56.000Z,51.15
2022-07-27T11:09:22.000Z,51.15
2022-07-27T11:11:49.000Z,51.15
2022-07-27T11:11:55.000Z,49.42
2022-07-27T11:12:01.000Z,46.85
2022-07-27T11:14:15.000Z,41.92
2022-07-27T11:16:43.000Z,41.92
2022-07-27T11:19:09.000Z,41.92
2022-07-27T11:19:16.000Z,50.28
2022-07-27T11:19:23.000Z,46.53
2022-07-27T11:21:35.000Z,47.57
2022-07-27T11:26:28.000Z,45.23
2022-07-27T11:28:55.000Z,47.93
2022-07-27T11:31:22.000Z,47.23
2022-07-27T11:33:49.000Z,47.23
2022-07-27T11:33:56.000Z,52.62
2022-07-27T11:36:15.000Z,52.13
2022-07-27T11:38:42.000Z,54.83
2022-07-27T11:43:35.000Z,55.65
2022-07-27T11:46:02.000Z,55.65
2022-07-27T11:46:08.000Z,58.17
2022-07-27T11:46:14.000Z,52.1
2022-07-27T11:50:55.000Z,52.1
2022-07-27T11:51:01.000Z,59.08
2022-07-27T11:51:07.000Z,53.15
2022-07-27T11:53:21.000Z,54.95
2022-07-27T11:55:47.000Z,54.15
2022-07-27T11:58:15.000Z,55.03
2022-07-27T12:00:42.000Z,64.87
2022-07-27T12:03:08.000Z,63.1
2022-07-27T12:05:34.000Z,58.25
2022-07-27T12:08:01.000Z,59.6
2022-07-27T12:10:29.000Z,60.92
2022-07-27T12:12:54.000Z,60.92
2022-07-27T12:13:01.000Z,61.13
2022-07-27T12:17:47.000Z,64.03
2022-07-27T12:17:53.000Z,58.27
2022-07-27T12:20:15.000Z,67.35
2022-07-27T12:22:40.000Z,59.35
2022-07-27T12:25:07.000Z,65.95
2022-07-27T12:27:33.000Z,65.95
2022-07-27T12:27:41.000Z,63.75
2022-07-27T12:30:00.000Z,64.07
2022-07-27T12:32:26.000Z,67.47
2022-07-27T12:34:54.000Z,66.92
2022-07-27T12:37:20.000Z,65.42
2022-07-27T12:39:46.000Z,65.25
2022-07-27T12:42:13.000Z,70.32
2022-07-27T12:44:39.000Z,64.7
2022-07-27T12:47:06.000Z,74.6
2022-07-27T12:49:32.000Z,67.08
2022-07-27T12:51:59.000Z,67.08
2022-07-27T12:52:05.000Z,68.5
2022-07-27T12:54:25.000Z,66.4
2022-07-27T12:56:52.000Z,76.15
2022-07-27T12:59:18.000Z,74.92
2022-07-27T13:01:48.000Z,78.3
2022-07-27T13:04:11.000Z,91.32
2022-07-27T13:06:38.000Z,82.7
2022-07-27T13:09:06.000Z,82.92
2022-07-27T13:11:31.000Z,93.85
2022-07-27T13:13:58.000Z,86.67
2022-07-27T13:16:25.000Z,85.03
2022-07-27T13:18:51.000Z,85.3
2022-07-27T13:21:19.000Z,81.82
2022-07-27T13:23:45.000Z,81.82
2022-07-27T13:23:51.000Z,85.83
2022-07-27T13:26:11.000Z,92.92
2022-07-27T13:28:38.000Z,86.15
2022-07-27T13:31:05.000Z,85.42
2022-07-27T13:33:31.000Z,86.4
2022-07-27T13:35:58.000Z,86.87
2022-07-27T13:38:24.000Z,94.97
2022-07-27T13:40:51.000Z,95.6
2022-07-27T13:43:18.000Z,95.2
2022-07-27T13:45:45.000Z,101.15
2022-07-27T13:48:11.000Z,101.72
2022-07-27T13:50:38.000Z,95.15
2022-07-27T13:53:06.000Z,97.45
2022-07-27T13:55:31.000Z,97.45
2022-07-27T13:55:38.000Z,95.72
2022-07-27T13:57:58.000Z,105.35
2022-07-27T14:00:25.000Z,98.3
2022-07-27T14:02:51.000Z,100.87
2022-07-27T14:05:18.000Z,97.75
2022-07-27T14:07:45.000Z,100
2022-07-27T14:10:12.000Z,104.58
2022-07-27T14:12:38.000Z,101.83
2022-07-27T14:15:06.000Z,97.55
2022-07-27T14:17:32.000Z,102
2022-07-27T14:20:01.000Z,100.47
2022-07-27T14:22:25.000Z,92.45
2022-07-27T14:24:51.000Z,99.22
2022-07-27T14:27:18.000Z,98.45
2022-07-27T14:29:45.000Z,88.27
2022-07-27T14:32:14.000Z,96.32
2022-07-27T14:34:39.000Z,96.57
2022-07-27T14:37:07.000Z,84.85
2022-07-27T14:39:33.000Z,90.95
2022-07-27T14:41:59.000Z,94.6
2022-07-27T14:44:27.000Z,94.45
2022-07-27T14:46:54.000Z,90.77
2022-07-27T14:49:21.000Z,92.9
2022-07-27T14:51:46.000Z,91.15
2022-07-27T14:54:15.000Z,95.87
2022-07-27T14:56:39.000Z,97.17
2022-07-27T14:59:06.000Z,105.8
2022-07-27T15:03:59.000Z,103.87
2022-07-27T15:06:25.000Z,101.47
2022-07-27T15:08:52.000Z,101.47
2022-07-27T15:08:59.000Z,108.87
2022-07-27T15:11:19.000Z,109.77
2022-07-27T15:13:46.000Z,102.67
2022-07-27T15:16:14.000Z,104.6
2022-07-27T15:18:40.000Z,110.03
2022-07-27T15:21:06.000Z,114.25
2022-07-27T15:23:32.000Z,114.25
2022-07-27T15:23:39.000Z,104.65
2022-07-27T15:25:59.000Z,112.4
2022-07-27T15:28:25.000Z,110.48
2022-07-27T15:30:54.000Z,110.12
2022-07-27T15:33:19.000Z,113.5
2022-07-27T15:35:46.000Z,101.93
2022-07-27T15:38:13.000Z,109.8
2022-07-27T15:40:39.000Z,104.75
2022-07-27T15:43:06.000Z,105.47
2022-07-27T15:45:32.000Z,105.65
2022-07-27T15:47:59.000Z,109.1
2022-07-27T15:50:25.000Z,110.7
2022-07-27T15:55:18.000Z,109.2
2022-07-27T15:57:45.000Z,107.43
2022-07-27T16:00:15.000Z,116.8
2022-07-27T16:02:37.000Z,110.57
2022-07-27T16:05:04.000Z,116.45
2022-07-27T16:07:31.000Z,112.5
2022-07-27T16:09:57.000Z,112.5
2022-07-27T16:10:03.000Z,114.57
2022-07-27T16:12:24.000Z,116.1
2022-07-27T16:14:51.000Z,116.1
2022-07-27T16:14:57.000Z,121.7
2022-07-27T16:17:17.000Z,118.7
2022-07-27T16:19:43.000Z,112.5
2022-07-27T16:22:10.000Z,116
2022-07-27T16:24:36.000Z,121.5
2022-07-27T16:27:03.000Z,118.82
2022-07-27T16:29:29.000Z,119.95
2022-07-27T16:31:56.000Z,118.95
2022-07-27T16:34:22.000Z,115.82
2022-07-27T16:36:49.000Z,115.42
2022-07-27T16:39:16.000Z,117.37
2022-07-27T16:41:42.000Z,108.8
2022-07-27T16:44:09.000Z,115.72
2022-07-27T16:46:35.000Z,115.5
2022-07-27T16:49:02.000Z,109.9
2022-07-27T16:51:28.000Z,117.3
2022-07-27T16:53:56.000Z,118.87
2022-07-27T16:58:48.000Z,113.03
2022-07-27T17:01:14.000Z,113.75
2022-07-27T17:03:40.000Z,113.75
2022-07-27T17:03:47.000Z,119.6
2022-07-27T17:06:07.000Z,114.85
2022-07-27T17:08:34.000Z,114.52
2022-07-27T17:11:00.000Z,118.07
2022-07-27T17:13:27.000Z,118.07
2022-07-27T17:15:53.000Z,118.07
2022-07-27T17:16:00.000Z,112.45
2022-07-27T17:16:06.000Z,109.83
2022-07-27T17:18:19.000Z,111.25
2022-07-27T17:20:46.000Z,110.8
2022-07-27T17:23:14.000Z,116.7
2022-07-27T17:25:40.000Z,109.42
2022-07-27T17:28:06.000Z,108.22
2022-07-27T17:30:32.000Z,113.62
2022-07-27T17:32:59.000Z,113.62
2022-07-27T17:33:05.000Z,110.42
2022-07-27T17:35:25.000Z,116.28
2022-07-27T17:37:53.000Z,111
2022-07-27T17:40:19.000Z,111
2022-07-27T17:40:27.000Z,110.3
2022-07-27T17:42:45.000Z,106.67
2022-07-27T17:45:12.000Z,112.88
2022-07-27T17:50:04.000Z,109.53
2022-07-27T17:52:31.000Z,113.15
2022-07-27T17:54:57.000Z,113.15
2022-07-27T17:55:03.000Z,113.53
2022-07-27T17:57:23.000Z,106.22
2022-07-27T17:59:50.000Z,108.47
2022-07-27T18:02:18.000Z,102
2022-07-27T18:04:43.000Z,108.92
2022-07-27T18:07:09.000Z,104.8
2022-07-27T18:09:36.000Z,110.37
2022-07-27T18:12:02.000Z,105.8
2022-07-27T18:14:28.000Z,101
2022-07-27T18:16:55.000Z,101
2022-07-27T18:17:02.000Z,101.37
2022-07-27T18:19:23.000Z,102.2
2022-07-27T18:21:48.000Z,102.2
2022-07-27T18:21:55.000Z,98.45
2022-07-27T18:24:15.000Z,100.87
2022-07-27T18:26:41.000Z,99.87
2022-07-27T18:29:08.000Z,100
2022-07-27T18:31:34.000Z,100
2022-07-27T18:31:40.000Z,97.27
2022-07-27T18:34:00.000Z,98.82
2022-07-27T18:36:26.000Z,98.82
2022-07-27T18:36:33.000Z,99.4
2022-07-27T18:38:53.000Z,96.92
2022-07-27T18:41:20.000Z,104.1
2022-07-27T18:43:46.000Z,102.02
2022-07-27T18:46:13.000Z,100
2022-07-27T18:48:39.000Z,107.12
2022-07-27T18:53:33.000Z,97.45
2022-07-27T18:55:58.000Z,94.5
2022-07-27T18:58:25.000Z,87.25
2022-07-27T19:00:52.000Z,93.97
2022-07-27T19:03:18.000Z,101.92
2022-07-27T19:05:45.000Z,101.92
2022-07-27T19:05:54.000Z,94
2022-07-27T19:08:12.000Z,91.45
2022-07-27T19:10:38.000Z,87.35
2022-07-27T19:13:05.000Z,89.4
2022-07-27T19:15:31.000Z,90.85
2022-07-27T19:17:58.000Z,86.9
2022-07-27T19:20:25.000Z,94.37
2022-07-27T19:22:50.000Z,84.72
2022-07-27T19:25:17.000Z,90.07
2022-07-27T19:27:44.000Z,89.67
2022-07-27T19:30:11.000Z,84.22
2022-07-27T19:32:37.000Z,86.35
2022-07-27T19:35:03.000Z,86.45
2022-07-27T19:37:29.000Z,88.42
2022-07-27T19:39:56.000Z,84.32
2022-07-27T19:42:21.000Z,84.32
2022-07-27T19:42:28.000Z,83.97
2022-07-27T19:44:48.000Z,84.72
2022-07-27T19:47:14.000Z,86.5
2022-07-27T19:49:41.000Z,83.7
2022-07-27T19:52:08.000Z,82.78
2022-07-27T19:54:34.000Z,85.45
2022-07-27T19:57:00.000Z,84.37
2022-07-27T19:59:27.000Z,85.03
2022-07-27T20:01:53.000Z,85.03
2022-07-27T20:01:59.000Z,87.22
2022-07-27T20:04:19.000Z,80.03
2022-07-27T20:06:46.000Z,86.97
2022-07-27T20:09:11.000Z,81.57
2022-07-27T20:11:37.000Z,87.17
2022-07-27T20:14:03.000Z,82.5
2022-07-27T20:16:30.000Z,80.67
2022-07-27T20:18:56.000Z,87.53
2022-07-27T20:21:22.000Z,83.27
2022-07-27T20:23:48.000Z,80.28
2022-07-27T20:26:15.000Z,79.22
2022-07-27T20:28:41.000Z,81.92
2022-07-27T20:31:08.000Z,76.97
2022-07-27T20:33:34.000Z,83.85
2022-07-27T20:36:00.000Z,79.95
2022-07-27T20:38:27.000Z,81.2
2022-07-27T20:40:54.000Z,79.58
2022-07-27T20:43:20.000Z,78.2
2022-07-27T20:45:46.000Z,82.92
2022-07-27T20:48:12.000Z,78.6
2022-07-27T20:50:38.000Z,79.6
2022-07-27T20:53:05.000Z,77.8
2022-07-27T20:55:31.000Z,80.5
2022-07-27T20:57:57.000Z,81.87
2022-07-27T21:00:23.000Z,81.53
2022-07-27T21:02:50.000Z,81.53
2022-07-27T21:02:59.000Z,79.1
2022-07-27T21:05:16.000Z,81.1
2022-07-27T21:07:43.000Z,75.45
2022-07-27T21:10:10.000Z,77.97
2022-07-27T21:12:37.000Z,73.83
2022-07-27T21:15:03.000Z,70.42
2022-07-27T21:17:28.000Z,70.42
2022-07-27T21:17:35.000Z,74.45
2022-07-27T21:19:55.000Z,74
2022-07-27T21:22:22.000Z,73.87
2022-07-27T21:24:48.000Z,75.55
2022-07-27T21:27:19.000Z,75.9
2022-07-27T21:29:41.000Z,75.9
2022-07-27T21:29:47.000Z,74.22
2022-07-27T21:32:07.000Z,76.33
2022-07-27T21:34:34.000Z,70.37
2022-07-27T21:36:59.000Z,69.4
2022-07-27T21:41:52.000Z,70.3
2022-07-27T21:44:19.000Z,70.3
2022-07-27T21:44:26.000Z,68.95
2022-07-27T21:46:45.000Z,75.2
2022-07-27T21:49:11.000Z,68.65
2022-07-27T21:51:37.000Z,64.07
2022-07-27T21:54:04.000Z,66.02
2022-07-27T21:56:30.000Z,62.8
2022-07-27T21:58:56.000Z,62.8
2022-07-27T21:59:02.000Z,61.63
2022-07-27T22:01:22.000Z,57.9
2022-07-27T22:03:48.000Z,64.13
2022-07-27T22:06:15.000Z,55.17
2022-07-27T22:08:41.000Z,57.35
2022-07-27T22:11:08.000Z,53.42
2022-07-27T22:13:34.000Z,56.8
2022-07-27T22:16:01.000Z,54.73
2022-07-27T22:18:27.000Z,56
2022-07-27T22:21:00.000Z,51.92
2022-07-27T22:23:20.000Z,53.3
2022-07-27T22:25:46.000Z,50.4
2022-07-27T22:28:13.000Z,49.13
2022-07-27T22:30:39.000Z,55.6
2022-07-27T22:33:06.000Z,55.6
2022-07-27T22:33:11.000Z,50.58
2022-07-27T22:35:31.000Z,54.5
2022-07-27T22:37:57.000Z,60.1
2022-07-27T22:40:25.000Z,56.33
2022-07-27T22:42:51.000Z,58.58
2022-07-27T22:45:16.000Z,77.7
2022-07-27T22:47:42.000Z,107.75
2022-07-27T22:50:08.000Z,86.27
2022-07-27T22:52:35.000Z,86.27
2022-07-27T22:52:41.000Z,66.2
2022-07-27T22:55:00.000Z,66.72
2022-07-27T22:57:27.000Z,68.78
2022-07-27T22:59:54.000Z,67.32
2022-07-27T23:02:19.000Z,72.37
2022-07-27T23:04:45.000Z,125.35
2022-07-27T23:07:12.000Z,137.47
2022-07-27T23:09:38.000Z,109.4
2022-07-27T23:12:05.000Z,80.8
2022-07-27T23:14:31.000Z,69.43
2022-07-27T23:16:58.000Z,66.97
2022-07-27T23:19:24.000Z,70.93
2022-07-27T23:21:50.000Z,65.8
2022-07-27T23:24:16.000Z,65.8
2022-07-27T23:26:43.000Z,65.8
2022-07-27T23:26:49.000Z,61.42
2022-07-27T23:26:55.000Z,66.7
2022-07-27T23:29:09.000Z,54.65
2022-07-27T23:31:35.000Z,60.15
2022-07-27T23:34:02.000Z,57.85
2022-07-27T23:36:28.000Z,57.1
2022-07-27T23:38:54.000Z,56.73
2022-07-27T23:41:20.000Z,65.5
2022-07-27T23:43:46.000Z,64.33
2022-07-27T23:46:13.000Z,61.42
2022-07-27T23:48:40.000Z,61.25
2022-07-27T23:51:06.000Z,62.05
2022-07-27T23:53:33.000Z,59.53
2022-07-27T23:55:58.000Z,57.65
